createdAt,value
2022-09-21T00:12:11.782Z,1020.42
2022-09-21T00:26:11.774Z,1020.42
2022-09-21T00:40:11.799Z,1020.46
2022-09-21T00:54:11.797Z,1020.57
2022-09-21T01:08:11.828Z,1020.83
2022-09-21T01:22:11.804Z,1020.83
2022-09-21T01:36:11.874Z,1020.83
2022-09-21T01:50:11.787Z,1020.91
2022-09-21T02:04:11.827Z,1020.94
2022-09-21T02:18:11.814Z,1020.97
2022-09-21T02:32:11.817Z,1020.85
2022-09-21T02:47:11.832Z,1020.99
2022-09-21T03:01:11.848Z,1021.11
2022-09-21T03:15:11.823Z,1021.02
2022-09-21T03:29:11.828Z,1021.12
2022-09-21T03:43:11.848Z,1021.15
2022-09-21T03:57:11.865Z,1021.07
2022-09-21T04:11:11.879Z,1021.25
2022-09-21T04:25:11.885Z,1021.25
2022-09-21T04:39:11.868Z,1021.38
2022-09-21T04:54:11.872Z,1021.47
2022-09-21T05:09:11.868Z,1021.71
2022-09-21T05:24:11.874Z,1021.87
2022-09-21T05:40:11.955Z,1022.04
2022-09-21T05:55:11.873Z,1022.11
2022-09-21T06:10:11.895Z,1022.23
2022-09-21T06:25:11.883Z,1022.21
2022-09-21T06:40:11.989Z,1022.35
2022-09-21T06:55:12.015Z,1022.35
2022-09-21T07:10:16.014Z,1022.37
2022-09-21T07:25:12.197Z,1022.49
2022-09-21T07:40:12.213Z,1022.57
2022-09-21T07:55:12.214Z,1022.71
2022-09-21T08:10:12.309Z,1022.76
2022-09-21T08:25:12.242Z,1022.94
2022-09-21T08:40:12.354Z,1022.92
2022-09-21T08:55:16.856Z,1022.88
2022-09-21T09:10:12.821Z,1022.96
2022-09-21T09:25:12.607Z,1022.98
2022-09-21T09:40:12.758Z,1022.94
2022-09-21T09:55:13.043Z,1022.84
2022-09-21T10:10:12.981Z,1022.85
2022-09-21T10:25:12.961Z,1022.79
2022-09-21T10:40:13.014Z,1022.6
2022-09-21T10:55:12.980Z,1022.58
2022-09-21T11:10:13.051Z,1022.55
2022-09-21T11:25:13.010Z,1022.47
2022-09-21T11:40:13.058Z,1022.37
2022-09-21T11:55:13.050Z,1022.33
2022-09-21T12:10:13.058Z,1022.25
2022-09-21T12:25:13.112Z,1022.13
2022-09-21T12:40:13.211Z,1022.04
2022-09-21T12:55:15.061Z,1022.05
2022-09-21T13:10:13.234Z,1021.96
2022-09-21T13:25:13.141Z,1021.75
2022-09-21T13:40:13.389Z,1021.77
2022-09-21T13:55:13.192Z,1021.62
2022-09-21T14:10:13.219Z,1021.51
2022-09-21T14:25:13.270Z,1021.48
2022-09-21T14:40:13.337Z,1021.51
2022-09-21T14:55:13.280Z,1021.52
2022-09-21T15:10:13.284Z,1021.52
2022-09-21T15:30:17.600Z,1021.52
2022-09-21T15:45:17.722Z,1021.59
2022-09-21T16:01:17.543Z,1021.64
2022-09-21T16:16:17.640Z,1021.65
2022-09-21T16:31:17.759Z,1021.69
2022-09-21T16:46:17.761Z,1021.86
2022-09-21T17:01:17.703Z,1022.02
2022-09-21T17:16:17.747Z,1022.08
2022-09-21T17:31:17.761Z,1022.14
2022-09-21T17:46:17.793Z,1022.27
2022-09-21T18:00:17.766Z,1022.4
2022-09-21T18:14:17.941Z,1022.5
2022-09-21T18:28:17.956Z,1022.58
2022-09-21T18:42:18.042Z,1022.8
2022-09-21T18:56:18.000Z,1022.86
2022-09-21T19:10:18.025Z,1022.94
2022-09-21T19:24:18.100Z,1022.93
2022-09-21T19:38:18.104Z,1022.95
2022-09-21T19:52:18.101Z,1023.05
2022-09-21T20:06:18.110Z,1022.98
2022-09-21T20:20:18.227Z,1022.97
2022-09-21T20:34:18.410Z,1023
2022-09-21T20:48:18.422Z,1023.13
2022-09-21T21:02:18.430Z,1023.13
2022-09-21T21:16:18.434Z,1023.15
2022-09-21T21:30:18.421Z,1023.14
2022-09-21T21:44:18.431Z,1023.16
2022-09-21T21:58:18.439Z,1023.12
2022-09-21T22:12:18.452Z,1023.06
2022-09-21T22:26:18.416Z,1023.04
2022-09-21T22:40:18.462Z,1022.89
2022-09-21T22:54:18.548Z,1022.78
2022-09-21T23:08:18.721Z,1022.71
2022-09-21T23:22:18.740Z,1022.76
2022-09-21T23:36:18.701Z,1022.64
2022-09-21T23:50:18.727Z,1022.59
